Hauptseite
METAR-TAF:

METAR-TAF

Flughäfen :

Wittmund, Deutschland

Fliegerhorst Wittmundhafen

Breite: 53-33N, Länge: 007-40E, Höhe: 8 m

Beobachtung

Neuester Wetterbericht von vor 1 Stunde und 31 Minuten, um 13:20 UTC
Wind 7 kt aus West
Temperatur 15°C
Luftfeuchtigkeit 77%
Luftdruck 1018 hPa
Sichtweite 10 km oder mehr
Leicht bewölkt in der Höhe von 1200 ft
Durchbrochene Bewölkung in der Höhe von 4500 ft
Durchbrochene Bewölkung in der Höhe von 23000 ft

METAR: ETNT 201320Z 27007KT 9999 FEW012 BKN045 BKN230 15/11 Q1018 BLU BLU

Zeit: 16:51 (14:51 UTC)

Prognose

Neuester Wetterbericht von vor 4 Stunden und 36 Minuten, um 10:15 UTC
Gültige Prognose vom 20 um 11 UTC bis 20 um 20 UTC
Wind 7 kt aus West/Südwest
Sichtweite 10 km oder mehr
Aufgelockert bewölkt in der Höhe von 1500 ft
Durchbrochene Bewölkung in der Höhe von 5000 ft

TAF: ETNT 201015Z 2011/2020 24007KT 9999 NSW SCT015 BKN050 BY ETGL

Wetterbeobachtungen und Prognosen von mehr als 4000 Flughäfen (METAR und TAF Bericht).

Die verfügbaren Stationen werden durch gelbe und rote Markierungen auf der Karte dargestellt.

Führen Sie die Maus auf sie, um den Namen der Station zu sehen.

Darauf klicken, um die Beobachtung von Wetterbeobachtungen und Prognosen zu sehen.

Um die Karte zu ändern : klicken Sie auf den grünen Tasten mit einem schwarzen Kreuz Zum Vergrößern, auf den grünen Button mit einem Gedankenstrich zu verkleinern, oder auf die grünen Pfeile für benachbarte Karten.


METAR-TAF: